Laguna Carapa, Brazil
Current Conditions -  °F | °C
As of 12:00 PM on Friday 31 Oct 2014 (Local Time) from SBPP Reporting Station
Broken Clouds Broken Clouds  
Wind Chill: 81°   Ceiling: 1500
Heat Index: 84°   Visibility: 6mi
Dew Point: 70°   Wind: 0mph
Humidity: 70%   Direction: NA
Pressure: 29.91"   Gusts: NA
Location:  22.55°S, 55.15°W
Report Text: SBPP 311500Z 00000KT 9999 BKN015 27/21 Q1013
Loading
Personal Weather Stations






























Interactive Weather Map
Tropical Storm Tracking
New forecast layout! Learn more

10-Day Weather Forecast

Advertisements
Track Severe Weather on mobile